Girdwood, AK

1:43 AM AKDT on October 26, 2014 (GMT -0800)
RAWS GIRDWOOD AK US | Change Station
CLOSE
Current Station
Personal Weather Station
Location: Girdwood, AK
Elevation: 174 ft
Nearby Weather Stations

Elev 174 ft 60.97 °N, 149.12 °W | Updated 47 minutes ago

Overcast
Overcast
31 °F
Feels Like 31 °F
N
2
Wind Variable Wind from NNE
Gusts 6.0 mph

Today
High -- | Low -- °F
--% Chance of Precip.
Yesterday
High -- | Low -- °F
Precip. -- in
9:07 AM 6:12 PM
Waxing Crescent, 7% visible
Pressure 29.82 in
Visibility 10.0 miles
Clouds Overcast 4300 ft
Windchill 31 °F
Dew Point 31 °F
Humidity 98%
Rainfall 0.06 in
Snow Depth Not available.
UV 0 out of 12
Pollen Not available.
Air Quality Not available.
Flu Activity Local Activity
METAR PATO 260853Z AUTO 30005KT 10SM OVC043 00/M02 A2981 RMK AO2 SLP096 T00001017 400111006 50002 TSNO

More Conditions Fewer Conditions

Pressure 29.82 in
Visibility 10.0 miles
Clouds Overcast 4300 ft
Windchill 31 °F
Dew Point 31 °F
Humidity 98%
Rainfall 0.06 in
Snow Depth Not available.
UV 0 out of 12
Pollen Not available.
Air Quality Not available.
Flu Activity Local Activity
METAR PATO 260853Z AUTO 30005KT 10SM OVC043 00/M02 A2981 RMK AO2 SLP096 T00001017 400111006 50002 TSNO

More Conditions Fewer Conditions

10-Day Weather Forecast

Almanac

Astronomy

Oct. 26, 2014 Rise Set
Actual Time 9:07 AM AKDT 6:12 PM AKDT
Civil Twilight 8:22 AM AKDT 6:57 PM AKDT
Nautical Twilight 7:31 AM AKDT 7:47 PM AKDT
Astronomical Twilight 6:42 AM AKDT 8:37 PM AKDT
Moon 12:29 PM AKDT 7:57 PM AKDT
Length of Visible Light 10h 35m
Length of Day
9h 04m
Tomorrow will be 5m 31s shorter.
Waxing Crescent, 7% of the Moon is Illuminated
Today
Waxing Crescent
Oct 30
First Quarter
Nov 6
Full
Nov 14
Last Quarter
Nov 22
New

Today's Extremes

State Highs State Lows

Community

WunderPhotos

Upload Photos

1,765,132 photos uploaded!

Nearby

Snow Depth

Station Depth Elevation
Turnagain Pass 6 in 1880 ft
Indian Pass 7 in 2300 ft
Grandview 3 in 1100 ft
Summit Creek 2 in 1400 ft
Moraine 0 in 2100 ft

Earthquake Activity

City Distance Mag. Time & Date
No recent earthquake activity has been reported nearby.
Minimum magnitude displayed is 2.5.

Coastal Water Temperatures

Place Temperature
No Stations Reporting

Nearby Weather Stations